createdAt,value
2018-03-07T00:00:16.716Z,988.06
2018-03-07T00:02:18.770Z,988.08
2018-03-07T00:04:20.415Z,988.06
2018-03-07T00:06:22.182Z,988.08
2018-03-07T00:08:23.913Z,988.03
2018-03-07T00:10:25.880Z,988.05
2018-03-07T00:12:27.847Z,988.02
2018-03-07T00:14:29.592Z,988.03
2018-03-07T00:16:31.325Z,988.01
2018-03-07T00:18:33.493Z,988.03
2018-03-07T00:20:35.266Z,988.03
2018-03-07T00:22:37.039Z,987.99
2018-03-07T00:24:39.066Z,988.01
2018-03-07T00:26:41.129Z,988.01
2018-03-07T00:28:42.918Z,988.03
2018-03-07T00:30:44.643Z,988.01
2018-03-07T00:32:46.279Z,988.03
2018-03-07T00:34:47.959Z,988.01
2018-03-07T00:36:49.915Z,988.00
2018-03-07T00:38:51.639Z,987.97
2018-03-07T00:40:53.415Z,987.97
2018-03-07T00:42:55.480Z,987.96
2018-03-07T00:44:58.053Z,987.96
2018-03-07T00:46:59.726Z,987.95
2018-03-07T00:49:01.471Z,987.95
2018-03-07T00:51:03.148Z,987.94
2018-03-07T00:53:04.924Z,987.98
2018-03-07T00:55:06.651Z,987.97
2018-03-07T00:57:08.253Z,987.95
2018-03-07T00:59:10.310Z,987.95
2018-03-07T01:01:12.087Z,988.00
2018-03-07T01:03:13.945Z,988.05
2018-03-07T01:05:15.669Z,988.01
2018-03-07T01:07:17.414Z,988.01
2018-03-07T01:09:19.111Z,987.99
2018-03-07T01:11:21.277Z,988.00
2018-03-07T01:13:23.411Z,988.00
2018-03-07T01:15:25.104Z,988.00
2018-03-07T01:17:26.896Z,987.98
2018-03-07T01:19:28.839Z,988.02
2018-03-07T01:21:30.595Z,988.00
2018-03-07T01:23:32.303Z,987.99
2018-03-07T01:25:34.035Z,988.01
2018-03-07T01:27:36.078Z,987.97
2018-03-07T01:29:37.931Z,988.03
2018-03-07T01:31:39.649Z,987.98
2018-03-07T01:33:41.258Z,988.00
2018-03-07T01:35:43.386Z,987.97
2018-03-07T01:37:45.173Z,987.96
2018-03-07T01:39:46.951Z,987.93
2018-03-07T01:41:48.773Z,987.91
2018-03-07T01:43:50.793Z,987.90
2018-03-07T01:45:52.378Z,987.91
2018-03-07T01:47:54.079Z,987.84
2018-03-07T01:49:55.736Z,987.85
2018-03-07T01:51:57.666Z,987.79
2018-03-07T01:53:59.600Z,987.75
2018-03-07T01:56:01.243Z,987.80
2018-03-07T01:58:02.894Z,987.78
2018-03-07T02:00:04.636Z,987.80
2018-03-07T02:02:06.283Z,987.74
2018-03-07T02:04:08.371Z,987.73
2018-03-07T02:06:10.041Z,987.75
2018-03-07T02:08:11.815Z,987.77
2018-03-07T02:10:13.550Z,987.77
2018-03-07T02:12:15.627Z,987.77
2018-03-07T02:14:17.395Z,987.79
2018-03-07T02:16:19.099Z,987.75
2018-03-07T02:18:21.086Z,987.74
2018-03-07T02:20:22.769Z,987.81
2018-03-07T02:22:24.566Z,987.76
2018-03-07T02:24:27.213Z,987.78
2018-03-07T02:26:28.843Z,987.77
2018-03-07T02:28:30.923Z,987.78
2018-03-07T02:30:32.633Z,987.77
2018-03-07T02:32:34.345Z,987.78
2018-03-07T02:34:36.426Z,987.79
2018-03-07T02:36:38.491Z,987.74
2018-03-07T02:38:40.240Z,987.75
2018-03-07T02:40:42.002Z,987.73
2018-03-07T02:42:44.158Z,987.72
2018-03-07T02:44:45.924Z,987.73
2018-03-07T02:46:47.995Z,987.72
2018-03-07T02:48:49.670Z,987.71
2018-03-07T02:50:51.374Z,987.71
2018-03-07T02:52:53.082Z,987.79
2018-03-07T02:54:54.747Z,987.79
2018-03-07T02:56:56.607Z,987.78
2018-03-07T02:58:58.273Z,987.74
2018-03-07T03:01:00.002Z,987.71
2018-03-07T03:03:01.706Z,987.69
2018-03-07T03:05:03.674Z,987.63
2018-03-07T03:07:05.430Z,987.63
2018-03-07T03:09:07.581Z,987.65
2018-03-07T03:11:09.640Z,987.61
2018-03-07T03:13:11.413Z,987.65
2018-03-07T03:15:13.550Z,987.62
2018-03-07T03:17:15.241Z,987.59
2018-03-07T03:19:16.946Z,987.58
2018-03-07T03:21:18.718Z,987.68
2018-03-07T03:23:20.448Z,987.70
2018-03-07T03:25:22.176Z,987.65
2018-03-07T03:27:24.343Z,987.71
2018-03-07T03:29:26.099Z,987.72
2018-03-07T03:31:27.825Z,987.75
2018-03-07T03:33:29.576Z,987.82
2018-03-07T03:35:31.660Z,987.77
2018-03-07T03:37:33.393Z,987.79
2018-03-07T03:39:35.411Z,987.80
2018-03-07T03:41:37.580Z,987.81
2018-03-07T03:43:39.334Z,987.83
2018-03-07T03:45:41.467Z,987.86
2018-03-07T03:47:43.265Z,987.83
2018-03-07T03:49:45.039Z,987.85
2018-03-07T03:51:46.712Z,987.87
2018-03-07T03:53:48.380Z,987.87
2018-03-07T03:55:50.052Z,987.89
2018-03-07T03:57:51.746Z,987.90
2018-03-07T03:59:53.506Z,987.90
2018-03-07T04:01:55.218Z,987.94
2018-03-07T04:03:56.986Z,987.97
2018-03-07T04:05:58.786Z,987.92
2018-03-07T04:08:00.529Z,987.94
2018-03-07T04:10:02.181Z,987.97
2018-03-07T04:12:03.940Z,988.01
2018-03-07T04:14:05.723Z,987.99
2018-03-07T04:16:07.402Z,988.02
2018-03-07T04:18:09.544Z,987.99
2018-03-07T04:20:11.637Z,987.99
2018-03-07T04:22:13.312Z,988.04
2018-03-07T04:24:15.350Z,988.07
2018-03-07T04:26:17.021Z,988.05
2018-03-07T04:28:18.713Z,988.08
2018-03-07T04:30:20.419Z,988.15
2018-03-07T04:32:22.112Z,988.18
2018-03-07T04:34:24.335Z,988.18
2018-03-07T04:36:26.039Z,988.21
2018-03-07T04:38:27.738Z,988.24
2018-03-07T04:40:29.503Z,988.20
2018-03-07T04:42:31.268Z,988.21
2018-03-07T04:44:32.973Z,988.25
2018-03-07T04:46:34.636Z,988.29
2018-03-07T04:48:36.300Z,988.32
2018-03-07T04:50:37.973Z,988.33
2018-03-07T04:52:39.738Z,988.34
2018-03-07T04:54:41.486Z,988.33
2018-03-07T04:56:43.285Z,988.37
2018-03-07T04:58:44.959Z,988.37
2018-03-07T05:00:46.642Z,988.35
2018-03-07T05:02:48.300Z,988.38
2018-03-07T05:04:50.013Z,988.38
2018-03-07T05:06:51.788Z,988.41
2018-03-07T05:08:53.997Z,988.35
2018-03-07T05:10:56.236Z,988.32
2018-03-07T05:12:58.459Z,988.35
2018-03-07T05:15:00.214Z,988.32
2018-03-07T05:17:02.629Z,988.34
2018-03-07T05:19:04.381Z,988.32
2018-03-07T05:21:06.093Z,988.37
2018-03-07T05:23:07.760Z,988.36
2018-03-07T05:25:10.026Z,988.38
2018-03-07T05:27:11.737Z,988.36
2018-03-07T05:29:13.404Z,988.36
2018-03-07T05:31:15.232Z,988.33
2018-03-07T05:33:17.022Z,988.31
2018-03-07T05:35:18.657Z,988.32
2018-03-07T05:37:20.390Z,988.31
2018-03-07T05:39:22.118Z,988.32
2018-03-07T05:41:23.831Z,988.31
2018-03-07T05:43:25.421Z,988.38
2018-03-07T05:45:27.637Z,988.39
2018-03-07T05:47:29.275Z,988.47
2018-03-07T05:49:31.023Z,988.42
2018-03-07T05:51:32.770Z,988.47
2018-03-07T05:53:34.472Z,988.50
2018-03-07T05:55:36.211Z,988.55
2018-03-07T05:57:37.880Z,988.59
2018-03-07T05:59:40.172Z,988.60
2018-03-07T06:01:41.930Z,988.65
2018-03-07T06:03:43.633Z,988.65
2018-03-07T06:05:45.420Z,988.69
2018-03-07T06:07:47.967Z,988.70
2018-03-07T06:09:49.747Z,988.66
2018-03-07T06:11:51.343Z,988.70
2018-03-07T06:13:52.999Z,988.68
2018-03-07T06:15:54.719Z,988.68
2018-03-07T06:17:56.392Z,988.69
2018-03-07T06:19:58.010Z,988.74
2018-03-07T06:21:59.792Z,988.76
2018-03-07T06:24:02.124Z,988.77
2018-03-07T06:26:03.817Z,988.80
2018-03-07T06:28:05.508Z,988.78
2018-03-07T06:30:07.193Z,988.80
2018-03-07T06:32:08.871Z,988.84
2018-03-07T06:34:10.615Z,988.84
2018-03-07T06:36:12.270Z,988.85
2018-03-07T06:38:14.600Z,988.89
2018-03-07T06:40:16.420Z,988.94
2018-03-07T06:42:18.027Z,988.94
2018-03-07T06:44:19.735Z,988.95
2018-03-07T06:46:21.769Z,989.00
2018-03-07T06:48:23.560Z,988.98
2018-03-07T06:50:26.599Z,989.04
2018-03-07T06:52:28.281Z,989.00
2018-03-07T06:54:30.008Z,989.07
2018-03-07T06:56:33.706Z,989.08
2018-03-07T06:58:35.418Z,989.05
2018-03-07T07:00:38.790Z,989.08
2018-03-07T07:02:40.507Z,989.14
2018-03-07T07:04:42.224Z,989.18
2018-03-07T07:06:44.007Z,989.17
2018-03-07T07:08:45.684Z,989.17
2018-03-07T07:10:47.336Z,989.16
2018-03-07T07:12:52.041Z,989.21
2018-03-07T07:14:53.634Z,989.23
2018-03-07T07:16:55.381Z,989.24
2018-03-07T07:18:57.277Z,989.27
2018-03-07T07:21:00.257Z,989.29
2018-03-07T07:23:04.577Z,989.26
2018-03-07T07:25:06.267Z,989.26
2018-03-07T07:27:09.076Z,989.30
2018-03-07T07:29:11.669Z,989.28
2018-03-07T07:31:13.896Z,989.29
2018-03-07T07:33:15.729Z,989.29
2018-03-07T07:35:17.267Z,989.30
2018-03-07T07:37:18.920Z,989.34
2018-03-07T07:39:20.361Z,989.39
2018-03-07T07:41:21.827Z,989.34
2018-03-07T07:43:23.527Z,989.37
2018-03-07T07:45:25.215Z,989.39
2018-03-07T07:47:26.921Z,989.38
2018-03-07T07:49:28.696Z,989.44
2018-03-07T07:51:30.448Z,989.45
2018-03-07T07:53:32.305Z,989.48
2018-03-07T07:55:35.217Z,989.52
2018-03-07T07:57:36.773Z,989.53
2018-03-07T07:59:38.298Z,989.52
2018-03-07T08:01:39.848Z,989.58
2018-03-07T08:03:41.558Z,989.61
2018-03-07T08:05:43.309Z,989.62
2018-03-07T08:07:44.899Z,989.57
2018-03-07T08:09:46.479Z,989.56
2018-03-07T08:11:48.316Z,989.54
2018-03-07T08:13:50.019Z,989.61
2018-03-07T08:15:51.759Z,989.61
2018-03-07T08:17:53.435Z,989.59
2018-03-07T08:19:56.150Z,989.63
2018-03-07T08:21:58.167Z,989.62
2018-03-07T08:23:59.715Z,989.60
2018-03-07T08:26:01.210Z,989.59
2018-03-07T08:28:03.145Z,989.55
2018-03-07T08:30:04.837Z,989.50
2018-03-07T08:32:06.483Z,989.54
2018-03-07T08:34:08.115Z,989.55
2018-03-07T08:36:09.832Z,989.50
2018-03-07T08:38:11.429Z,989.54
2018-03-07T08:40:13.091Z,989.50
2018-03-07T08:42:14.880Z,989.53
2018-03-07T08:44:16.683Z,989.56
2018-03-07T08:46:18.429Z,989.52
2018-03-07T08:48:21.589Z,989.44
2018-03-07T08:50:23.359Z,989.43
2018-03-07T08:52:24.996Z,989.44
2018-03-07T08:54:27.603Z,989.47
2018-03-07T08:56:30.409Z,989.49
2018-03-07T08:58:32.622Z,989.50
2018-03-07T09:00:34.453Z,989.48
2018-03-07T09:02:36.057Z,989.47
2018-03-07T09:04:37.792Z,989.47
2018-03-07T09:06:39.475Z,989.49
2018-03-07T09:08:41.769Z,989.46
2018-03-07T09:10:43.765Z,989.49
2018-03-07T09:12:47.285Z,989.48
2018-03-07T09:14:48.759Z,989.50
2018-03-07T09:16:50.466Z,989.50
2018-03-07T09:18:52.181Z,989.42
2018-03-07T09:20:53.813Z,989.46
2018-03-07T09:22:55.513Z,989.48
2018-03-07T09:24:57.235Z,989.46
2018-03-07T09:27:00.313Z,989.44
2018-03-07T09:29:01.795Z,989.47
2018-03-07T09:31:03.458Z,989.46
2018-03-07T09:33:06.541Z,989.47
2018-03-07T09:35:08.213Z,989.50
2018-03-07T09:37:09.845Z,989.50
2018-03-07T09:39:11.968Z,989.50
2018-03-07T09:41:13.811Z,989.53
2018-03-07T09:43:17.119Z,989.50
2018-03-07T09:45:18.801Z,989.45
2018-03-07T09:47:20.477Z,989.41
2018-03-07T09:49:23.668Z,989.42
2018-03-07T09:51:26.718Z,989.39
2018-03-07T09:53:28.562Z,989.42
2018-03-07T09:55:32.037Z,989.43
2018-03-07T09:57:35.523Z,989.43
2018-03-07T09:59:37.239Z,989.35
2018-03-07T10:01:38.955Z,989.37
2018-03-07T10:03:40.693Z,989.36
2018-03-07T10:05:42.342Z,989.36
2018-03-07T10:07:45.557Z,989.40
2018-03-07T10:09:48.536Z,989.42
2018-03-07T10:11:50.231Z,989.44
2018-03-07T10:13:51.924Z,989.50
2018-03-07T10:15:53.589Z,989.55
2018-03-07T10:17:55.209Z,989.61
2018-03-07T10:19:56.856Z,989.60
2018-03-07T10:21:58.570Z,989.64
2018-03-07T10:24:00.261Z,989.61
2018-03-07T10:26:01.949Z,989.62
2018-03-07T10:28:03.668Z,989.64
2018-03-07T10:30:05.312Z,989.68
2018-03-07T10:32:06.937Z,989.71
2018-03-07T10:34:08.556Z,989.71
2018-03-07T10:36:10.339Z,989.78
2018-03-07T10:38:11.991Z,989.78
2018-03-07T10:40:13.714Z,989.78
2018-03-07T10:42:16.748Z,989.79
2018-03-07T10:44:19.915Z,989.80
2018-03-07T10:46:22.831Z,989.83
2018-03-07T10:48:24.528Z,989.83
2018-03-07T10:50:28.761Z,989.85
2018-03-07T10:52:31.800Z,989.87
2018-03-07T10:54:35.352Z,989.93
2018-03-07T10:56:36.876Z,989.89
2018-03-07T10:58:39.744Z,989.87
2018-03-07T11:00:41.355Z,989.92
2018-03-07T11:02:44.258Z,989.94
2018-03-07T11:04:45.961Z,989.96
2018-03-07T11:06:49.306Z,989.95
2018-03-07T11:08:50.920Z,989.97
2018-03-07T11:10:52.715Z,990.02
2018-03-07T11:12:54.364Z,989.99
2018-03-07T11:14:57.348Z,989.95
2018-03-07T11:16:58.926Z,989.94
2018-03-07T11:19:00.975Z,989.96
2018-03-07T11:21:02.661Z,989.91
2018-03-07T11:23:04.292Z,990.00
2018-03-07T11:25:06.024Z,989.98
2018-03-07T11:27:07.690Z,989.98
2018-03-07T11:29:09.355Z,989.97
2018-03-07T11:31:11.081Z,989.98
2018-03-07T11:33:12.712Z,989.97
2018-03-07T11:35:14.339Z,989.96
2018-03-07T11:37:17.398Z,989.98
2018-03-07T11:39:19.118Z,989.91
2018-03-07T11:41:22.031Z,989.95
2018-03-07T11:43:24.562Z,989.94
2018-03-07T11:45:27.785Z,989.98
2018-03-07T11:47:29.404Z,989.96
2018-03-07T11:49:31.064Z,989.93
2018-03-07T11:51:33.957Z,989.98
2018-03-07T11:53:35.611Z,989.95
2018-03-07T11:55:38.362Z,989.96
2018-03-07T11:57:41.118Z,989.96
2018-03-07T11:59:44.591Z,989.94
2018-03-07T12:01:46.275Z,989.88
2018-03-07T12:03:48.710Z,989.84
2018-03-07T12:05:50.370Z,989.80
2018-03-07T12:07:52.081Z,989.80
2018-03-07T12:09:53.786Z,989.76
2018-03-07T12:11:55.499Z,989.75
2018-03-07T12:13:57.101Z,989.73
2018-03-07T12:15:58.710Z,989.74
2018-03-07T12:18:00.306Z,989.73
2018-03-07T12:20:02.069Z,989.76
2018-03-07T12:22:04.565Z,989.73
2018-03-07T12:24:06.282Z,989.71
2018-03-07T12:26:08.084Z,989.72
2018-03-07T12:28:09.823Z,989.69
2018-03-07T12:30:11.513Z,989.65
2018-03-07T12:32:13.230Z,989.68
2018-03-07T12:34:14.919Z,989.67
2018-03-07T12:36:16.683Z,989.60
2018-03-07T12:38:18.479Z,989.60
2018-03-07T12:40:20.967Z,989.62
2018-03-07T12:42:23.408Z,989.55
2018-03-07T12:44:25.868Z,989.56
2018-03-07T12:46:27.507Z,989.53
2018-03-07T12:48:30.023Z,989.54
2018-03-07T12:50:31.650Z,989.52
2018-03-07T12:52:34.061Z,989.54
2018-03-07T12:54:35.760Z,989.55
2018-03-07T12:56:37.457Z,989.56
2018-03-07T12:58:39.271Z,989.58
2018-03-07T13:00:40.767Z,989.55
2018-03-07T13:02:43.864Z,989.53
2018-03-07T13:04:45.759Z,989.55
2018-03-07T13:06:47.515Z,989.55
2018-03-07T13:08:49.422Z,989.56
2018-03-07T13:10:51.878Z,989.52
2018-03-07T13:12:54.294Z,989.56
2018-03-07T13:14:56.006Z,989.54
2018-03-07T13:16:57.787Z,989.56
2018-03-07T13:18:59.476Z,989.54
2018-03-07T13:21:01.167Z,989.60
2018-03-07T13:23:02.831Z,989.63
2018-03-07T13:25:04.539Z,989.63
2018-03-07T13:27:06.239Z,989.66
2018-03-07T13:29:08.000Z,989.67
2018-03-07T13:31:09.708Z,989.65
2018-03-07T13:33:11.556Z,989.66
2018-03-07T13:35:13.127Z,989.62
2018-03-07T13:37:14.785Z,989.60
2018-03-07T13:39:16.737Z,989.56
2018-03-07T13:41:18.389Z,989.54
2018-03-07T13:43:20.151Z,989.53
2018-03-07T13:45:23.472Z,989.53
2018-03-07T13:47:25.179Z,989.50
2018-03-07T13:49:26.914Z,989.51
2018-03-07T13:51:28.640Z,989.53
2018-03-07T13:53:31.376Z,989.53
2018-03-07T13:55:33.933Z,989.56
2018-03-07T13:57:35.543Z,989.59
2018-03-07T13:59:37.150Z,989.59
2018-03-07T14:01:39.874Z,989.57
2018-03-07T14:03:41.900Z,989.58
2018-03-07T14:05:43.352Z,989.60
2018-03-07T14:07:45.036Z,989.63
2018-03-07T14:09:46.668Z,989.63
2018-03-07T14:11:48.371Z,989.69
2018-03-07T14:13:50.099Z,989.68
2018-03-07T14:15:51.750Z,989.74
2018-03-07T14:17:53.396Z,989.72
2018-03-07T14:19:55.140Z,989.70
2018-03-07T14:21:56.826Z,989.68
2018-03-07T14:23:59.299Z,989.78
2018-03-07T14:26:02.013Z,989.82
2018-03-07T14:28:03.619Z,989.86
2018-03-07T14:30:05.371Z,989.87
2018-03-07T14:32:07.046Z,989.91
2018-03-07T14:34:08.722Z,989.88
2018-03-07T14:36:10.381Z,989.84
2018-03-07T14:38:12.058Z,989.91
2018-03-07T14:40:13.767Z,989.90
2018-03-07T14:42:15.490Z,989.90
2018-03-07T14:44:17.417Z,989.89
2018-03-07T14:46:19.061Z,989.92
2018-03-07T14:48:20.754Z,989.92
2018-03-07T14:50:22.499Z,989.94
2018-03-07T14:52:24.190Z,989.94
2018-03-07T14:54:25.836Z,989.95
2018-03-07T14:56:27.479Z,990.17
2018-03-07T14:58:30.512Z,990.20
2018-03-07T15:00:32.067Z,990.27
2018-03-07T15:02:33.683Z,990.31
2018-03-07T15:04:36.371Z,990.37
2018-03-07T15:06:38.000Z,990.40
2018-03-07T15:08:39.741Z,990.37
2018-03-07T15:10:41.218Z,990.38
2018-03-07T15:12:42.951Z,990.39
2018-03-07T15:14:44.644Z,990.43
2018-03-07T15:16:46.329Z,990.42
2018-03-07T15:18:48.535Z,990.42
2018-03-07T15:20:49.999Z,990.40
2018-03-07T15:22:51.446Z,990.39
2018-03-07T15:24:52.902Z,990.42
2018-03-07T15:26:54.587Z,990.45
2018-03-07T15:28:56.733Z,990.46
2018-03-07T15:30:58.440Z,990.43
2018-03-07T15:33:00.627Z,990.47
2018-03-07T15:35:02.365Z,990.46
2018-03-07T15:37:03.921Z,990.45
2018-03-07T15:39:05.611Z,990.43
2018-03-07T15:41:07.302Z,990.38
2018-03-07T15:43:08.921Z,990.37
2018-03-07T15:45:10.433Z,990.36
2018-03-07T15:47:12.136Z,990.39
2018-03-07T15:49:14.220Z,990.40
2018-03-07T15:51:16.246Z,990.43
2018-03-07T15:53:17.933Z,990.43
2018-03-07T15:55:19.566Z,990.40
2018-03-07T15:57:21.306Z,990.39
2018-03-07T15:59:22.982Z,990.39
2018-03-07T16:01:24.676Z,990.43
2018-03-07T16:03:26.445Z,990.42
2018-03-07T16:05:28.101Z,990.44
2018-03-07T16:07:29.682Z,990.43
2018-03-07T16:09:31.579Z,990.48
2018-03-07T16:11:33.212Z,990.46
2018-03-07T16:13:34.889Z,990.48
2018-03-07T16:15:36.370Z,990.49
2018-03-07T16:17:37.844Z,990.54
2018-03-07T16:19:39.481Z,990.52
2018-03-07T16:21:41.493Z,990.54
2018-03-07T16:23:43.190Z,990.55
2018-03-07T16:25:44.898Z,990.56
2018-03-07T16:27:47.077Z,990.53
2018-03-07T16:29:48.760Z,990.55
2018-03-07T16:31:50.790Z,990.57
2018-03-07T16:33:52.438Z,990.55
2018-03-07T16:35:54.095Z,990.53
2018-03-07T16:37:55.849Z,990.55
2018-03-07T16:39:57.980Z,990.57
2018-03-07T16:41:59.646Z,990.60
2018-03-07T16:44:01.370Z,990.60
2018-03-07T16:46:03.088Z,990.57
2018-03-07T16:48:04.781Z,990.60
2018-03-07T16:50:06.488Z,990.62
2018-03-07T16:52:08.559Z,990.66
2018-03-07T16:54:10.048Z,990.66
2018-03-07T16:56:11.574Z,990.70
2018-03-07T16:58:13.796Z,990.72
2018-03-07T17:00:15.378Z,990.76
2018-03-07T17:02:17.317Z,990.79
2018-03-07T17:04:18.983Z,990.80
2018-03-07T17:06:20.747Z,990.86
2018-03-07T17:08:22.933Z,990.86
2018-03-07T17:10:24.610Z,990.85
2018-03-07T17:12:26.313Z,990.85
2018-03-07T17:14:27.953Z,990.81
2018-03-07T17:16:29.690Z,990.87
2018-03-07T17:18:31.344Z,990.86
2018-03-07T17:20:33.042Z,990.82
2018-03-07T17:22:35.322Z,990.87
2018-03-07T17:24:36.829Z,990.92
2018-03-07T17:26:38.252Z,990.87
2018-03-07T17:28:39.895Z,990.91
2018-03-07T17:30:41.543Z,990.95
2018-03-07T17:32:43.595Z,990.93
2018-03-07T17:34:45.643Z,990.99
2018-03-07T17:36:47.909Z,990.97
2018-03-07T17:38:49.467Z,990.97
2018-03-07T17:40:50.892Z,991.00
2018-03-07T17:42:52.529Z,991.03
2018-03-07T17:44:54.954Z,991.06
2018-03-07T17:46:56.989Z,991.07
2018-03-07T17:48:58.583Z,991.12
2018-03-07T17:51:00.339Z,991.14
2018-03-07T17:53:01.999Z,991.16
2018-03-07T17:55:04.148Z,991.16
2018-03-07T17:57:06.337Z,991.16
2018-03-07T17:59:07.976Z,991.17
2018-03-07T18:01:09.747Z,991.14
2018-03-07T18:03:11.388Z,991.13
2018-03-07T18:05:13.064Z,991.17
2018-03-07T18:07:14.637Z,991.19
2018-03-07T18:09:16.326Z,991.21
2018-03-07T18:11:17.817Z,991.21
2018-03-07T18:13:19.298Z,991.22
2018-03-07T18:15:20.976Z,991.21
2018-03-07T18:17:22.493Z,991.22
2018-03-07T18:19:24.060Z,991.26
2018-03-07T18:21:25.711Z,991.25
2018-03-07T18:23:27.487Z,991.25
2018-03-07T18:25:29.165Z,991.30
2018-03-07T18:27:30.844Z,991.27
2018-03-07T18:29:32.639Z,991.24
2018-03-07T18:31:34.264Z,991.22
2018-03-07T18:33:36.051Z,991.18
2018-03-07T18:35:37.764Z,991.18
2018-03-07T18:37:39.426Z,991.18
2018-03-07T18:39:41.169Z,991.16
2018-03-07T18:41:42.792Z,991.19
2018-03-07T18:43:44.450Z,991.22
2018-03-07T18:45:46.055Z,991.20
2018-03-07T18:47:48.032Z,991.24
2018-03-07T18:49:49.626Z,991.23
2018-03-07T18:51:51.125Z,991.23
2018-03-07T18:53:52.877Z,991.22
2018-03-07T18:55:54.540Z,991.24
2018-03-07T18:57:56.654Z,991.29
2018-03-07T18:59:58.262Z,991.31
2018-03-07T19:01:59.764Z,991.31
2018-03-07T19:04:01.204Z,991.32
2018-03-07T19:06:02.660Z,991.32
2018-03-07T19:08:04.110Z,991.30
2018-03-07T19:10:08.323Z,991.35
2018-03-07T19:12:11.545Z,991.33
2018-03-07T19:14:13.018Z,991.37
2018-03-07T19:16:16.127Z,991.37
2018-03-07T19:18:17.872Z,991.36
2018-03-07T19:20:19.341Z,991.34
2018-03-07T19:22:21.510Z,991.39
2018-03-07T19:24:23.901Z,991.37
2018-03-07T19:26:25.444Z,991.37
2018-03-07T19:28:26.944Z,991.39
2018-03-07T19:30:28.583Z,991.43
2018-03-07T19:32:31.026Z,991.43
2018-03-07T19:34:32.683Z,991.50
2018-03-07T19:36:34.399Z,991.46
2018-03-07T19:38:36.069Z,991.51
2018-03-07T19:40:38.383Z,991.49
2018-03-07T19:42:40.209Z,991.56
2018-03-07T19:44:41.929Z,991.54
2018-03-07T19:46:43.501Z,991.56
2018-03-07T19:48:45.903Z,991.60
2018-03-07T19:50:50.959Z,991.61
2018-03-07T19:52:55.102Z,991.61
2018-03-07T19:54:59.725Z,991.65
2018-03-07T19:57:02.948Z,991.64
2018-03-07T19:59:04.644Z,991.66
2018-03-07T20:01:06.313Z,991.66
2018-03-07T20:03:08.837Z,991.67
2018-03-07T20:05:12.027Z,991.65
2018-03-07T20:07:13.467Z,991.68
2018-03-07T20:09:15.471Z,991.65
2018-03-07T20:11:17.435Z,991.67
2018-03-07T20:13:20.614Z,991.66
2018-03-07T20:15:22.077Z,991.71
2018-03-07T20:17:25.014Z,991.71
2018-03-07T20:19:28.429Z,991.70
2018-03-07T20:21:30.581Z,991.77
2018-03-07T20:23:32.838Z,991.81
2018-03-07T20:25:33.478Z,991.80
2018-03-07T20:27:34.976Z,991.85
2018-03-07T20:29:39.444Z,991.87
2018-03-07T20:31:40.905Z,991.87
2018-03-07T20:33:42.370Z,991.89
2018-03-07T20:35:43.807Z,991.85
2018-03-07T20:37:46.856Z,991.93
2018-03-07T20:39:49.438Z,991.88
2018-03-07T20:41:51.507Z,991.90
2018-03-07T20:43:53.065Z,991.96
2018-03-07T20:45:54.531Z,991.93
2018-03-07T20:47:56.913Z,991.94
2018-03-07T20:49:59.283Z,991.98
2018-03-07T20:52:01.835Z,992.01
2018-03-07T20:54:04.343Z,992.00
2018-03-07T20:56:05.367Z,992.04
2018-03-07T20:58:07.030Z,992.02
2018-03-07T21:00:08.630Z,992.02
2018-03-07T21:02:10.298Z,992.06
2018-03-07T21:04:12.163Z,992.09
2018-03-07T21:06:13.788Z,992.08
2018-03-07T21:08:15.425Z,992.10
2018-03-07T21:10:17.215Z,992.13
2018-03-07T21:12:18.906Z,992.11
2018-03-07T21:14:20.577Z,992.12
2018-03-07T21:16:22.897Z,992.09
2018-03-07T21:18:24.509Z,992.14
2018-03-07T21:20:27.963Z,992.14
2018-03-07T21:22:29.977Z,992.17
2018-03-07T21:24:33.252Z,992.14
2018-03-07T21:26:34.985Z,992.20
2018-03-07T21:28:36.774Z,992.22
2018-03-07T21:30:38.467Z,992.21
2018-03-07T21:32:40.138Z,992.25
2018-03-07T21:34:41.847Z,992.28
2018-03-07T21:36:43.534Z,992.28
2018-03-07T21:38:45.482Z,992.28
2018-03-07T21:40:47.173Z,992.27
2018-03-07T21:42:48.849Z,992.31
2018-03-07T21:44:50.562Z,992.36
2018-03-07T21:46:52.227Z,992.32
2018-03-07T21:48:53.906Z,992.32
2018-03-07T21:50:55.601Z,992.37
2018-03-07T21:52:57.460Z,992.37
2018-03-07T21:54:59.171Z,992.39
2018-03-07T21:57:01.161Z,992.40
2018-03-07T21:59:02.962Z,992.42
2018-03-07T22:01:04.530Z,992.42
2018-03-07T22:03:06.295Z,992.45
2018-03-07T22:05:07.998Z,992.47
2018-03-07T22:07:09.716Z,992.47
2018-03-07T22:09:11.347Z,992.47
2018-03-07T22:11:13.016Z,992.47
2018-03-07T22:13:14.776Z,992.48
2018-03-07T22:15:16.529Z,992.50
2018-03-07T22:17:18.282Z,992.52
2018-03-07T22:19:20.085Z,992.58
2018-03-07T22:21:21.839Z,992.58
2018-03-07T22:23:23.504Z,992.60
2018-03-07T22:25:25.187Z,992.62
2018-03-07T22:27:26.960Z,992.70
2018-03-07T22:29:28.713Z,992.66
2018-03-07T22:31:30.575Z,992.67
2018-03-07T22:33:32.277Z,992.66
2018-03-07T22:35:33.914Z,992.67
2018-03-07T22:37:35.547Z,992.70
2018-03-07T22:39:37.233Z,992.70
2018-03-07T22:41:39.060Z,992.71
2018-03-07T22:43:40.745Z,992.72
2018-03-07T22:45:42.436Z,992.74
2018-03-07T22:47:44.184Z,992.75
2018-03-07T22:49:45.907Z,992.73
2018-03-07T22:51:47.612Z,992.76
2018-03-07T22:53:49.283Z,992.80
2018-03-07T22:55:51.147Z,992.79
2018-03-07T22:57:52.931Z,992.83
2018-03-07T22:59:54.560Z,992.88
2018-03-07T23:01:56.304Z,992.88
2018-03-07T23:03:57.928Z,992.94
2018-03-07T23:05:59.632Z,992.92
2018-03-07T23:08:01.443Z,992.92
2018-03-07T23:10:03.022Z,992.94
2018-03-07T23:12:04.726Z,993.01
2018-03-07T23:14:06.558Z,993.04
2018-03-07T23:16:08.256Z,993.02
2018-03-07T23:18:09.995Z,993.00
2018-03-07T23:20:11.659Z,993.06
2018-03-07T23:22:13.318Z,993.09
2018-03-07T23:24:15.287Z,993.03
2018-03-07T23:26:17.021Z,993.05
2018-03-07T23:28:18.817Z,993.11
2018-03-07T23:30:20.481Z,993.17
2018-03-07T23:32:22.246Z,993.16
2018-03-07T23:34:23.938Z,993.18
2018-03-07T23:36:25.666Z,993.19
2018-03-07T23:38:27.306Z,993.26
2018-03-07T23:40:29.029Z,993.22
2018-03-07T23:42:30.834Z,993.27
2018-03-07T23:44:32.525Z,993.27
2018-03-07T23:46:34.255Z,993.34
2018-03-07T23:48:35.912Z,993.33
2018-03-07T23:50:37.637Z,993.36
2018-03-07T23:52:39.426Z,993.36
2018-03-07T23:54:41.223Z,993.35
2018-03-07T23:56:42.906Z,993.36
2018-03-07T23:58:44.549Z,993.34
